Habib Express — 5IM379 — position and weather

sailwx.info

Track history (hours):
 
Tides and Currents Weather Stations Pressure Air Temp Water Temp Dewpoint Dewpoint Depression Visibility Wind Speed Wind Dir Waves Ship Positions

Habib Express

Last reported at 2017-Sep-16 15:05 UTC. Time now 2017-Sep-22 09:59 UTC.
Position N 25°19' W 079°51'.

Length 90 m; draft 4.5 m.

Type: Cargo ship. MMSI: 677027900.

Date/timePositionNaut miles runAvg speedWind from/ knotsBaromVisibWave heightAir tempDewpointWater temp
2017-Sep-16 15:05N 25°19' W 079°51'1 8.2
2017-Sep-16 14:59N 25°20' W 079°52'4 8.7
2017-Sep-16 14:30N 25°24' W 079°53'5 9.1
2017-Sep-16 14:00N 25°28' W 079°55'5 9.7
2017-Sep-16 13:30N 25°33' W 079°57'510.2
2017-Sep-16 13:00N 25°37' W 080°00'510.7
2017-Sep-16 12:30N 25°42' W 080°03'5 9.6
2017-Sep-16 12:00N 25°46' W 080°06'5 9.1
2017-Sep-16 11:30N 25°46' W 080°11'1 2.2
2017-Sep-16 11:00N 25°46' W 080°12'0 0.4
2017-Sep-16 10:30N 25°46' W 080°12'1 2.6
2017-Sep-16 10:00N 25°47' W 080°13'1 2.6
2017-Sep-16 09:29N 25°48' W 080°15'0 0.4
2017-Sep-16 08:59N 25°48' W 080°15'0 0.0
2017-Sep-16 08:29N 25°48' W 080°15'0 0.0
2017-Sep-16 07:59N 25°48' W 080°15'0 0.0
2017-Sep-16 07:29N 25°48' W 080°15'0 0.0
2017-Sep-16 06:59N 25°48' W 080°15'0 0.0
2017-Sep-16 06:26N 25°48' W 080°15'0 0.0
2017-Sep-16 05:59N 25°48' W 080°15'0 0.0
2017-Sep-16 05:29N 25°48' W 080°15'0 0.0
2017-Sep-16 04:59N 25°48' W 080°15'0 0.0
2017-Sep-16 04:29N 25°48' W 080°15'0 0.0
2017-Sep-16 03:59N 25°48' W 080°15'0 0.0
2017-Sep-16 03:29N 25°48' W 080°15'0 0.0
2017-Sep-16 02:59N 25°48' W 080°15'0 0.0
2017-Sep-16 02:29N 25°48' W 080°15'0 0.0
2017-Sep-16 01:59N 25°48' W 080°15'0 0.0
2017-Sep-16 01:26N 25°48' W 080°15'0 0.0
2017-Sep-16 00:53N 25°48' W 080°15'0 0.0
2017-Sep-16 00:29N 25°48' W 080°15'0 0.0
2017-Sep-15 23:56N 25°48' W 080°15'0 0.0
2017-Sep-15 23:29N 25°48' W 080°15'0 0.0
2017-Sep-15 22:59N 25°48' W 080°15'0 0.0
2017-Sep-15 22:29N 25°48' W 080°15'0 0.0
2017-Sep-15 21:59N 25°48' W 080°15'0 0.0
2017-Sep-15 21:29N 25°48' W 080°15'0 0.0
2017-Sep-15 20:59N 25°48' W 080°15'0 0.0
2017-Sep-15 20:23N 25°48' W 080°15'0 0.0
2017-Sep-15 19:59N 25°48' W 080°15'0 0.0
2017-Sep-15 19:29N 25°48' W 080°15'0 0.0
2017-Sep-15 18:59N 25°48' W 080°15'0 0.0
2017-Sep-15 18:29N 25°48' W 080°15'0 0.0
2017-Sep-15 17:59N 25°48' W 080°15'0 0.0
2017-Sep-15 17:29N 25°48' W 080°15'0 0.0
2017-Sep-15 16:59N 25°48' W 080°15'0 0.0
2017-Sep-15 16:17N 25°48' W 080°15'0 0.0
2017-Sep-15 15:59N 25°48' W 080°15'0 0.0
2017-Sep-15 15:29N 25°48' W 080°15'0 0.0
2017-Sep-15 14:50N 25°48' W 080°15'0 0.0
2017-Sep-15 14:29N 25°48' W 080°15'0 0.0
2017-Sep-15 13:59N 25°48' W 080°15'0 0.0
2017-Sep-15 13:29N 25°48' W 080°15'0 0.0
2017-Sep-15 12:56N 25°48' W 080°15'0 0.0
2017-Sep-15 12:28N 25°48' W 080°15'0 0.0
2017-Sep-15 11:58N 25°48' W 080°15'0 0.0
2017-Sep-15 11:28N 25°48' W 080°15'0 0.0
2017-Sep-15 10:58N 25°48' W 080°15'0 0.0
2017-Sep-15 10:28N 25°48' W 080°15'0 0.0
2017-Sep-15 09:58N 25°48' W 080°15'0 0.0
2017-Sep-15 09:30N 25°48' W 080°15'1 1.5
2017-Sep-15 09:00N 25°47' W 080°14'1 2.8
2017-Sep-15 08:30N 25°47' W 080°13'1 2.4
2017-Sep-15 08:00N 25°46' W 080°11'1 2.8
2017-Sep-15 07:30N 25°46' W 080°10'4 8.3
2017-Sep-15 07:00N 25°46' W 080°05'2 3.5
2017-Sep-15 06:30N 25°48' W 080°05'1 1.3
2017-Sep-15 06:00N 25°48' W 080°06'0 0.0
2017-Sep-15 05:30N 25°48' W 080°06'0 0.0
2017-Sep-15 05:00N 25°48' W 080°06'0 0.0
2017-Sep-15 04:30N 25°48' W 080°06'0 0.0
2017-Sep-15 04:00N 25°48' W 080°06'0 0.0
2017-Sep-15 03:30N 25°48' W 080°06'0 0.0
2017-Sep-15 03:00N 25°48' W 080°06'0 0.0
2017-Sep-15 02:30N 25°48' W 080°06'0 0.0
2017-Sep-15 02:00N 25°48' W 080°06'0 0.0
2017-Sep-15 01:30N 25°48' W 080°06'0 0.0
2017-Sep-15 01:00N 25°48' W 080°06'0 0.0
2017-Sep-15 00:30N 25°48' W 080°06'0 0.0
2017-Sep-14 23:57N 25°48' W 080°06'0 0.0
2017-Sep-14 23:30N 25°48' W 080°06'0 0.0
2017-Sep-14 23:00N 25°48' W 080°06'0 0.0
2017-Sep-14 22:27N 25°48' W 080°06'0 0.1
2017-Sep-14 22:00N 25°48' W 080°06'0 0.0
2017-Sep-14 21:30N 25°48' W 080°06'0 0.0
2017-Sep-14 21:00N 25°48' W 080°06'0 0.0
2017-Sep-14 20:30N 25°48' W 080°06'0 0.0
2017-Sep-14 20:00N 25°48' W 080°06'0 0.0
2017-Sep-14 19:30N 25°48' W 080°06'0 0.0
2017-Sep-14 19:00N 25°48' W 080°06'0 0.0
2017-Sep-14 18:30N 25°48' W 080°06'0 0.0
2017-Sep-14 18:00N 25°48' W 080°06'0 0.0
2017-Sep-14 17:27N 25°48' W 080°06'0 0.0
2017-Sep-14 17:00N 25°48' W 080°06'0 0.0
2017-Sep-14 16:27N 25°48' W 080°06'0 0.0
2017-Sep-14 16:00N 25°48' W 080°06'0 0.0
2017-Sep-14 15:30N 25°48' W 080°06'0 0.0
2017-Sep-14 15:00N 25°48' W 080°06'0 0.0
2017-Sep-14 14:24N 25°48' W 080°06'0 0.0
2017-Sep-14 14:00N 25°48' W 080°06'0 0.1
2017-Sep-14 13:30N 25°48' W 080°06'0 0.0
2017-Sep-14 13:00N 25°48' W 080°06'0 0.0
2017-Sep-14 12:27N 25°48' W 080°06'0 0.0
2017-Sep-14 12:00N 25°48' W 080°06'0 0.1
2017-Sep-14 11:30N 25°48' W 080°06'0 0.0
2017-Sep-14 10:48N 25°48' W 080°06'0 0.0
2017-Sep-14 10:30N 25°48' W 080°06'0 0.0
2017-Sep-14 10:00N 25°48' W 080°06'0 0.0
2017-Sep-14 09:30N 25°48' W 080°06'0 0.0
2017-Sep-14 09:00N 25°48' W 080°06'0 0.0
2017-Sep-14 08:27N 25°48' W 080°06'0 0.1
2017-Sep-14 07:57N 25°48' W 080°06'0 0.1
2017-Sep-14 07:30N 25°48' W 080°06'0 0.0
2017-Sep-14 07:00N 25°48' W 080°06'0 0.0
2017-Sep-14 06:30N 25°48' W 080°06'0 0.0
2017-Sep-14 06:00N 25°48' W 080°06'0 0.0
2017-Sep-14 05:30N 25°48' W 080°06'0 0.0
2017-Sep-14 05:00N 25°48' W 080°06'0 0.0
2017-Sep-14 04:30N 25°48' W 080°06'0 0.0
2017-Sep-14 03:57N 25°48' W 080°06'0 0.0
2017-Sep-14 03:24N 25°48' W 080°06'0 0.0
2017-Sep-14 03:00N 25°48' W 080°06'0 0.0
2017-Sep-14 02:30N 25°48' W 080°06'0 0.0
2017-Sep-14 02:00N 25°48' W 080°06'0 0.0
2017-Sep-14 01:30N 25°48' W 080°06'0 0.0
2017-Sep-14 01:00N 25°48' W 080°06'0 0.0
2017-Sep-14 00:30N 25°48' W 080°06'0 0.0
2017-Sep-14 00:00N 25°48' W 080°06'0 0.0
2017-Sep-13 23:30N 25°48' W 080°06'0 0.0
2017-Sep-13 23:00N 25°48' W 080°06'0 0.0
2017-Sep-13 22:30N 25°48' W 080°06'0 0.0
2017-Sep-13 22:00N 25°48' W 080°06'0 0.1
2017-Sep-13 21:30N 25°48' W 080°06'0 0.0
2017-Sep-13 21:00N 25°48' W 080°06'0 0.0
2017-Sep-13 20:30N 25°48' W 080°06'0 0.0
2017-Sep-13 19:57N 25°48' W 080°06'0 0.1
2017-Sep-13 19:27N 25°48' W 080°06'0 0.0
2017-Sep-13 18:54N 25°48' W 080°06'0 0.0
2017-Sep-13 18:30N 25°48' W 080°06'0 0.0
2017-Sep-13 18:00N 25°48' W 080°06'0 0.0
2017-Sep-13 17:30N 25°48' W 080°06'0 0.0
2017-Sep-13 17:00N 25°48' W 080°06'0 0.0
2017-Sep-13 16:30N 25°48' W 080°06'1 2.2
2017-Sep-13 16:00N 25°49' W 080°05'3 5.7
2017-Sep-13 15:30N 25°46' W 080°02'3 6.6
2017-Sep-13 15:00N 25°44' W 080°00'1 2.6
2017-Sep-13 14:30N 25°42' W 080°00'1 2.6
2017-Sep-13 14:01N 25°41' W 079°60'1 2.5
2017-Sep-13 13:30N 25°40' W 079°60'1 2.9
2017-Sep-13 13:00N 25°39' W 079°59'4 7.4
2017-Sep-13 12:30N 25°35' W 079°58'4 8.4
2017-Sep-13 12:00N 25°31' W 079°56'5 9.7
2017-Sep-13 11:30N 25°27' W 079°54'  
Track history (hours):
 
Tides and Currents Weather Stations Pressure Air Temp Water Temp Dewpoint Dewpoint Depression Visibility Wind Speed Wind Dir Waves Ship Positions

Habib Express

Last reported at 2017-Sep-16 15:05 UTC. Time now 2017-Sep-22 09:59 UTC.
Position N 25°19' W 079°51'.

Length 90 m; draft 4.5 m.

Type: Cargo ship. MMSI: 677027900.

Date/timePositionNaut miles runAvg speedWind from/ knotsBaromVisibWave heightAir tempDewpointWater temp
2017-Sep-16 15:05N 25°19' W 079°51'1 8.2
2017-Sep-16 14:59N 25°20' W 079°52'4 8.7
2017-Sep-16 14:30N 25°24' W 079°53'5 9.1
2017-Sep-16 14:00N 25°28' W 079°55'5 9.7
2017-Sep-16 13:30N 25°33' W 079°57'510.2
2017-Sep-16 13:00N 25°37' W 080°00'510.7
2017-Sep-16 12:30N 25°42' W 080°03'5 9.6
2017-Sep-16 12:00N 25°46' W 080°06'5 9.1
2017-Sep-16 11:30N 25°46' W 080°11'1 2.2
2017-Sep-16 11:00N 25°46' W 080°12'0 0.4
2017-Sep-16 10:30N 25°46' W 080°12'1 2.6
2017-Sep-16 10:00N 25°47' W 080°13'1 2.6
2017-Sep-16 09:29N 25°48' W 080°15'0 0.4
2017-Sep-16 08:59N 25°48' W 080°15'0 0.0
2017-Sep-16 08:29N 25°48' W 080°15'0 0.0
2017-Sep-16 07:59N 25°48' W 080°15'0 0.0
2017-Sep-16 07:29N 25°48' W 080°15'0 0.0
2017-Sep-16 06:59N 25°48' W 080°15'0 0.0
2017-Sep-16 06:26N 25°48' W 080°15'0 0.0
2017-Sep-16 05:59N 25°48' W 080°15'0 0.0
2017-Sep-16 05:29N 25°48' W 080°15'0 0.0
2017-Sep-16 04:59N 25°48' W 080°15'0 0.0
2017-Sep-16 04:29N 25°48' W 080°15'0 0.0
2017-Sep-16 03:59N 25°48' W 080°15'0 0.0
2017-Sep-16 03:29N 25°48' W 080°15'0 0.0
2017-Sep-16 02:59N 25°48' W 080°15'0 0.0
2017-Sep-16 02:29N 25°48' W 080°15'0 0.0
2017-Sep-16 01:59N 25°48' W 080°15'0 0.0
2017-Sep-16 01:26N 25°48' W 080°15'0 0.0
2017-Sep-16 00:53N 25°48' W 080°15'0 0.0
2017-Sep-16 00:29N 25°48' W 080°15'0 0.0
2017-Sep-15 23:56N 25°48' W 080°15'0 0.0
2017-Sep-15 23:29N 25°48' W 080°15'0 0.0
2017-Sep-15 22:59N 25°48' W 080°15'0 0.0
2017-Sep-15 22:29N 25°48' W 080°15'0 0.0
2017-Sep-15 21:59N 25°48' W 080°15'0 0.0
2017-Sep-15 21:29N 25°48' W 080°15'0 0.0
2017-Sep-15 20:59N 25°48' W 080°15'0 0.0
2017-Sep-15 20:23N 25°48' W 080°15'0 0.0
2017-Sep-15 19:59N 25°48' W 080°15'0 0.0
2017-Sep-15 19:29N 25°48' W 080°15'0 0.0
2017-Sep-15 18:59N 25°48' W 080°15'0 0.0
2017-Sep-15 18:29N 25°48' W 080°15'0 0.0
2017-Sep-15 17:59N 25°48' W 080°15'0 0.0
2017-Sep-15 17:29N 25°48' W 080°15'0 0.0
2017-Sep-15 16:59N 25°48' W 080°15'0 0.0
2017-Sep-15 16:17N 25°48' W 080°15'0 0.0
2017-Sep-15 15:59N 25°48' W 080°15'0 0.0
2017-Sep-15 15:29N 25°48' W 080°15'0 0.0
2017-Sep-15 14:50N 25°48' W 080°15'0 0.0
2017-Sep-15 14:29N 25°48' W 080°15'0 0.0
2017-Sep-15 13:59N 25°48' W 080°15'0 0.0
2017-Sep-15 13:29N 25°48' W 080°15'0 0.0
2017-Sep-15 12:56N 25°48' W 080°15'0 0.0
2017-Sep-15 12:28N 25°48' W 080°15'0 0.0
2017-Sep-15 11:58N 25°48' W 080°15'0 0.0
2017-Sep-15 11:28N 25°48' W 080°15'0 0.0
2017-Sep-15 10:58N 25°48' W 080°15'0 0.0
2017-Sep-15 10:28N 25°48' W 080°15'0 0.0
2017-Sep-15 09:58N 25°48' W 080°15'0 0.0
2017-Sep-15 09:30N 25°48' W 080°15'1 1.5
2017-Sep-15 09:00N 25°47' W 080°14'1 2.8
2017-Sep-15 08:30N 25°47' W 080°13'1 2.4
2017-Sep-15 08:00N 25°46' W 080°11'1 2.8
2017-Sep-15 07:30N 25°46' W 080°10'4 8.3
2017-Sep-15 07:00N 25°46' W 080°05'2 3.5
2017-Sep-15 06:30N 25°48' W 080°05'1 1.3
2017-Sep-15 06:00N 25°48' W 080°06'0 0.0
2017-Sep-15 05:30N 25°48' W 080°06'0 0.0
2017-Sep-15 05:00N 25°48' W 080°06'0 0.0
2017-Sep-15 04:30N 25°48' W 080°06'0 0.0
2017-Sep-15 04:00N 25°48' W 080°06'0 0.0
2017-Sep-15 03:30N 25°48' W 080°06'0 0.0
2017-Sep-15 03:00N 25°48' W 080°06'0 0.0
2017-Sep-15 02:30N 25°48' W 080°06'0 0.0
2017-Sep-15 02:00N 25°48' W 080°06'0 0.0
2017-Sep-15 01:30N 25°48' W 080°06'0 0.0
2017-Sep-15 01:00N 25°48' W 080°06'0 0.0
2017-Sep-15 00:30N 25°48' W 080°06'0 0.0
2017-Sep-14 23:57N 25°48' W 080°06'0 0.0
2017-Sep-14 23:30N 25°48' W 080°06'0 0.0
2017-Sep-14 23:00N 25°48' W 080°06'0 0.0
2017-Sep-14 22:27N 25°48' W 080°06'0 0.1
2017-Sep-14 22:00N 25°48' W 080°06'0 0.0
2017-Sep-14 21:30N 25°48' W 080°06'0 0.0
2017-Sep-14 21:00N 25°48' W 080°06'0 0.0
2017-Sep-14 20:30N 25°48' W 080°06'0 0.0
2017-Sep-14 20:00N 25°48' W 080°06'0 0.0
2017-Sep-14 19:30N 25°48' W 080°06'0 0.0
2017-Sep-14 19:00N 25°48' W 080°06'0 0.0
2017-Sep-14 18:30N 25°48' W 080°06'0 0.0
2017-Sep-14 18:00N 25°48' W 080°06'0 0.0
2017-Sep-14 17:27N 25°48' W 080°06'0 0.0
2017-Sep-14 17:00N 25°48' W 080°06'0 0.0
2017-Sep-14 16:27N 25°48' W 080°06'0 0.0
2017-Sep-14 16:00N 25°48' W 080°06'0 0.0
2017-Sep-14 15:30N 25°48' W 080°06'0 0.0
2017-Sep-14 15:00N 25°48' W 080°06'0 0.0
2017-Sep-14 14:24N 25°48' W 080°06'0 0.0
2017-Sep-14 14:00N 25°48' W 080°06'0 0.1
2017-Sep-14 13:30N 25°48' W 080°06'0 0.0
2017-Sep-14 13:00N 25°48' W 080°06'0 0.0
2017-Sep-14 12:27N 25°48' W 080°06'0 0.0
2017-Sep-14 12:00N 25°48' W 080°06'0 0.1
2017-Sep-14 11:30N 25°48' W 080°06'0 0.0
2017-Sep-14 10:48N 25°48' W 080°06'0 0.0
2017-Sep-14 10:30N 25°48' W 080°06'0 0.0
2017-Sep-14 10:00N 25°48' W 080°06'0 0.0
2017-Sep-14 09:30N 25°48' W 080°06'0 0.0
2017-Sep-14 09:00N 25°48' W 080°06'0 0.0
2017-Sep-14 08:27N 25°48' W 080°06'0 0.1
2017-Sep-14 07:57N 25°48' W 080°06'0 0.1
2017-Sep-14 07:30N 25°48' W 080°06'0 0.0
2017-Sep-14 07:00N 25°48' W 080°06'0 0.0
2017-Sep-14 06:30N 25°48' W 080°06'0 0.0
2017-Sep-14 06:00N 25°48' W 080°06'0 0.0
2017-Sep-14 05:30N 25°48' W 080°06'0 0.0
2017-Sep-14 05:00N 25°48' W 080°06'0 0.0
2017-Sep-14 04:30N 25°48' W 080°06'0 0.0
2017-Sep-14 03:57N 25°48' W 080°06'0 0.0
2017-Sep-14 03:24N 25°48' W 080°06'0 0.0
2017-Sep-14 03:00N 25°48' W 080°06'0 0.0
2017-Sep-14 02:30N 25°48' W 080°06'0 0.0
2017-Sep-14 02:00N 25°48' W 080°06'0 0.0
2017-Sep-14 01:30N 25°48' W 080°06'0 0.0
2017-Sep-14 01:00N 25°48' W 080°06'0 0.0
2017-Sep-14 00:30N 25°48' W 080°06'0 0.0
2017-Sep-14 00:00N 25°48' W 080°06'0 0.0
2017-Sep-13 23:30N 25°48' W 080°06'0 0.0
2017-Sep-13 23:00N 25°48' W 080°06'0 0.0
2017-Sep-13 22:30N 25°48' W 080°06'0 0.0
2017-Sep-13 22:00N 25°48' W 080°06'0 0.1
2017-Sep-13 21:30N 25°48' W 080°06'0 0.0
2017-Sep-13 21:00N 25°48' W 080°06'0 0.0
2017-Sep-13 20:30N 25°48' W 080°06'0 0.0
2017-Sep-13 19:57N 25°48' W 080°06'0 0.1
2017-Sep-13 19:27N 25°48' W 080°06'0 0.0
2017-Sep-13 18:54N 25°48' W 080°06'0 0.0
2017-Sep-13 18:30N 25°48' W 080°06'0 0.0
2017-Sep-13 18:00N 25°48' W 080°06'0 0.0
2017-Sep-13 17:30N 25°48' W 080°06'0 0.0
2017-Sep-13 17:00N 25°48' W 080°06'0 0.0
2017-Sep-13 16:30N 25°48' W 080°06'1 2.2
2017-Sep-13 16:00N 25°49' W 080°05'3 5.7
2017-Sep-13 15:30N 25°46' W 080°02'3 6.6
2017-Sep-13 15:00N 25°44' W 080°00'1 2.6
2017-Sep-13 14:30N 25°42' W 080°00'1 2.6
2017-Sep-13 14:01N 25°41' W 079°60'1 2.5
2017-Sep-13 13:30N 25°40' W 079°60'1 2.9
2017-Sep-13 13:00N 25°39' W 079°59'4 7.4
2017-Sep-13 12:30N 25°35' W 079°58'4 8.4
2017-Sep-13 12:00N 25°31' W 079°56'5 9.7
2017-Sep-13 11:30N 25°27' W 079°54'  

Dump ship's entire track history